sensor_id;sensor_type;location;lat;lon;timestamp;pressure;altitude;pressure_sealevel;temperature;humidity
60240;BME280;46102;39.012;-7.064;2022-09-02T00:00:34;98398.41;;;19.78;61.21
60240;BME280;46102;39.012;-7.064;2022-09-02T00:02:34;98406.56;;;19.63;61.59
60240;BME280;46102;39.012;-7.064;2022-09-02T00:04:35;98407.34;;;19.60;61.91
60240;BME280;46102;39.012;-7.064;2022-09-02T00:06:36;98407.34;;;19.60;61.89
60240;BME280;46102;39.012;-7.064;2022-09-02T00:08:38;98404.97;;;19.62;62.20
60240;BME280;46102;39.012;-7.064;2022-09-02T00:10:42;98414.09;;;19.59;62.67
60240;BME280;46102;39.012;-7.064;2022-09-02T00:12:43;98406.56;;;19.60;62.93
60240;BME280;46102;39.012;-7.064;2022-09-02T00:14:44;98403.69;;;19.52;63.63
60240;BME280;46102;39.012;-7.064;2022-09-02T00:16:45;98414.31;;;19.43;63.98
60240;BME280;46102;39.012;-7.064;2022-09-02T00:18:51;98406.34;;;19.42;64.23
60240;BME280;46102;39.012;-7.064;2022-09-02T00:20:52;98398.84;;;19.46;64.45
60240;BME280;46102;39.012;-7.064;2022-09-02T00:22:54;98401.22;;;19.44;64.56
60240;BME280;46102;39.012;-7.064;2022-09-02T00:24:55;98396.44;;;19.44;64.78
60240;BME280;46102;39.012;-7.064;2022-09-02T00:26:55;98391.25;;;19.43;65.08
60240;BME280;46102;39.012;-7.064;2022-09-02T00:28:56;98385.66;;;19.39;65.45
60240;BME280;46102;39.012;-7.064;2022-09-02T00:30:59;98383.53;;;19.29;65.88
60240;BME280;46102;39.012;-7.064;2022-09-02T00:32:59;98379.88;;;19.21;66.35
60240;BME280;46102;39.012;-7.064;2022-09-02T00:35:00;98379.81;;;19.14;66.65
60240;BME280;46102;39.012;-7.064;2022-09-02T00:37:02;98388.59;;;19.20;66.79
60240;BME280;46102;39.012;-7.064;2022-09-02T00:39:04;98386.59;;;19.17;66.93
60240;BME280;46102;39.012;-7.064;2022-09-02T00:41:09;98384.81;;;19.05;67.34
60240;BME280;46102;39.012;-7.064;2022-09-02T00:43:10;98390.72;;;19.00;67.50
60240;BME280;46102;39.012;-7.064;2022-09-02T00:45:11;98397.19;;;19.07;67.51
60240;BME280;46102;39.012;-7.064;2022-09-02T00:47:13;98392.34;;;19.01;67.63
60240;BME280;46102;39.012;-7.064;2022-09-02T00:49:29;98393.47;;;18.96;67.67
60240;BME280;46102;39.012;-7.064;2022-09-02T00:51:36;98389.50;;;18.97;67.81
60240;BME280;46102;39.012;-7.064;2022-09-02T00:53:40;98390.81;;;19.07;67.43
60240;BME280;46102;39.012;-7.064;2022-09-02T00:55:46;98408.25;;;19.04;67.74
60240;BME280;46102;39.012;-7.064;2022-09-02T00:57:51;98395.56;;;19.03;67.78
60240;BME280;46102;39.012;-7.064;2022-09-02T01:00:13;98395.44;;;18.96;68.13
60240;BME280;46102;39.012;-7.064;2022-09-02T01:02:17;98394.91;;;18.86;68.61
60240;BME280;46102;39.012;-7.064;2022-09-02T01:04:18;98392.03;;;18.79;68.94
60240;BME280;46102;39.012;-7.064;2022-09-02T01:06:22;98387.59;;;18.75;69.08
60240;BME280;46102;39.012;-7.064;2022-09-02T01:08:35;98394.03;;;18.79;69.15
60240;BME280;46102;39.012;-7.064;2022-09-02T01:10:38;98396.47;;;18.84;69.25
60240;BME280;46102;39.012;-7.064;2022-09-02T01:12:41;98395.19;;;18.78;69.48
60240;BME280;46102;39.012;-7.064;2022-09-02T01:14:42;98397.47;;;18.72;69.72
60240;BME280;46102;39.012;-7.064;2022-09-02T01:16:49;98392.34;;;18.74;69.57
60240;BME280;46102;39.012;-7.064;2022-09-02T01:18:54;98396.56;;;18.91;69.91
60240;BME280;46102;39.012;-7.064;2022-09-02T01:20:59;98399.47;;;18.71;70.26
60240;BME280;46102;39.012;-7.064;2022-09-02T01:23:00;98408.09;;;18.66;70.43
60240;BME280;46102;39.012;-7.064;2022-09-02T01:25:05;98406.72;;;18.80;70.25
60240;BME280;46102;39.012;-7.064;2022-09-02T01:27:07;98406.97;;;18.71;70.49
60240;BME280;46102;39.012;-7.064;2022-09-02T01:29:07;98400.09;;;18.61;71.09
60240;BME280;46102;39.012;-7.064;2022-09-02T01:31:08;98399.63;;;18.56;71.26
60240;BME280;46102;39.012;-7.064;2022-09-02T01:33:09;98402.06;;;18.61;71.37
60240;BME280;46102;39.012;-7.064;2022-09-02T01:35:10;98396.59;;;18.64;71.16
60240;BME280;46102;39.012;-7.064;2022-09-02T01:37:12;98393.41;;;18.66;71.21
60240;BME280;46102;39.012;-7.064;2022-09-02T01:39:14;98393.31;;;18.59;71.36
60240;BME280;46102;39.012;-7.064;2022-09-02T01:41:14;98394.28;;;18.43;71.71
60240;BME280;46102;39.012;-7.064;2022-09-02T01:43:21;98399.41;;;18.41;71.84
60240;BME280;46102;39.012;-7.064;2022-09-02T01:45:23;98399.09;;;18.46;71.78
60240;BME280;46102;39.012;-7.064;2022-09-02T01:47:25;98394.91;;;18.60;71.66
60240;BME280;46102;39.012;-7.064;2022-09-02T01:49:26;98390.34;;;18.44;71.78
60240;BME280;46102;39.012;-7.064;2022-09-02T01:51:28;98381.50;;;18.39;71.81
60240;BME280;46102;39.012;-7.064;2022-09-02T01:53:30;98379.53;;;18.39;71.62
60240;BME280;46102;39.012;-7.064;2022-09-02T01:55:33;98372.38;;;18.38;71.83
60240;BME280;46102;39.012;-7.064;2022-09-02T01:57:35;98367.59;;;18.35;71.81
60240;BME280;46102;39.012;-7.064;2022-09-02T01:59:38;98367.53;;;18.31;72.01
60240;BME280;46102;39.012;-7.064;2022-09-02T02:01:39;98372.72;;;18.33;71.75
60240;BME280;46102;39.012;-7.064;2022-09-02T02:03:40;98362.75;;;18.32;71.98
60240;BME280;46102;39.012;-7.064;2022-09-02T02:05:41;98361.53;;;18.29;72.15
60240;BME280;46102;39.012;-7.064;2022-09-02T02:07:43;98353.19;;;18.29;72.08
60240;BME280;46102;39.012;-7.064;2022-09-02T02:09:45;98348.44;;;18.30;72.37
60240;BME280;46102;39.012;-7.064;2022-09-02T02:11:49;98350.78;;;18.28;72.42
60240;BME280;46102;39.012;-7.064;2022-09-02T02:13:51;98342.03;;;18.26;72.80
60240;BME280;46102;39.012;-7.064;2022-09-02T02:15:55;98345.72;;;18.34;72.61
60240;BME280;46102;39.012;-7.064;2022-09-02T02:17:56;98349.31;;;18.34;72.87
60240;BME280;46102;39.012;-7.064;2022-09-02T02:19:57;98348.16;;;18.35;72.84
60240;BME280;46102;39.012;-7.064;2022-09-02T02:21:58;98346.63;;;18.41;72.77
60240;BME280;46102;39.012;-7.064;2022-09-02T02:24:00;98346.97;;;18.36;72.91
60240;BME280;46102;39.012;-7.064;2022-09-02T02:26:01;98334.25;;;18.35;72.75
60240;BME280;46102;39.012;-7.064;2022-09-02T02:28:02;98326.41;;;18.41;72.44
60240;BME280;46102;39.012;-7.064;2022-09-02T02:30:06;98333.41;;;18.31;72.43
60240;BME280;46102;39.012;-7.064;2022-09-02T02:32:08;98342.09;;;18.29;72.43
60240;BME280;46102;39.012;-7.064;2022-09-02T02:34:09;98333.56;;;18.15;72.79
60240;BME280;46102;39.012;-7.064;2022-09-02T02:36:10;98331.94;;;18.14;72.87
60240;BME280;46102;39.012;-7.064;2022-09-02T02:38:11;98341.38;;;18.09;72.80
60240;BME280;46102;39.012;-7.064;2022-09-02T02:40:12;98332.34;;;18.13;72.93
60240;BME280;46102;39.012;-7.064;2022-09-02T02:42:13;98342.69;;;18.16;72.55
60240;BME280;46102;39.012;-7.064;2022-09-02T02:44:15;98348.56;;;18.10;73.06
60240;BME280;46102;39.012;-7.064;2022-09-02T02:46:17;98349.81;;;18.17;72.79
60240;BME280;46102;39.012;-7.064;2022-09-02T02:48:19;98351.88;;;18.20;72.22
60240;BME280;46102;39.012;-7.064;2022-09-02T02:50:21;98352.59;;;18.17;72.28
60240;BME280;46102;39.012;-7.064;2022-09-02T02:52:23;98357.25;;;18.09;72.50
60240;BME280;46102;39.012;-7.064;2022-09-02T02:54:25;98365.56;;;18.09;72.71
60240;BME280;46102;39.012;-7.064;2022-09-02T02:56:27;98364.72;;;18.05;72.70
60240;BME280;46102;39.012;-7.064;2022-09-02T02:58:28;98366.25;;;18.02;72.87
60240;BME280;46102;39.012;-7.064;2022-09-02T03:00:31;98372.13;;;17.97;73.32
60240;BME280;46102;39.012;-7.064;2022-09-02T03:02:32;98369.09;;;18.06;72.66
60240;BME280;46102;39.012;-7.064;2022-09-02T03:04:34;98381.03;;;18.10;72.36
60240;BME280;46102;39.012;-7.064;2022-09-02T03:06:35;98386.31;;;18.15;72.09
60240;BME280;46102;39.012;-7.064;2022-09-02T03:08:37;98383.28;;;18.24;71.29
60240;BME280;46102;39.012;-7.064;2022-09-02T03:10:40;98382.19;;;18.32;71.35
60240;BME280;46102;39.012;-7.064;2022-09-02T03:12:42;98398.75;;;18.25;71.17
60240;BME280;46102;39.012;-7.064;2022-09-02T03:14:49;98395.97;;;18.25;71.27
60240;BME280;46102;39.012;-7.064;2022-09-02T03:16:50;98394.09;;;18.33;71.09
60240;BME280;46102;39.012;-7.064;2022-09-02T03:18:52;98395.22;;;18.28;71.49
60240;BME280;46102;39.012;-7.064;2022-09-02T03:20:53;98400.03;;;18.31;71.34
60240;BME280;46102;39.012;-7.064;2022-09-02T03:22:56;98398.84;;;18.32;71.43
60240;BME280;46102;39.012;-7.064;2022-09-02T03:24:58;98400.56;;;18.40;71.10
60240;BME280;46102;39.012;-7.064;2022-09-02T03:26:59;98390.75;;;18.46;70.84
60240;BME280;46102;39.012;-7.064;2022-09-02T03:29:00;98395.81;;;18.41;70.80
60240;BME280;46102;39.012;-7.064;2022-09-02T03:31:01;98382.78;;;18.45;70.83
60240;BME280;46102;39.012;-7.064;2022-09-02T03:33:02;98381.94;;;18.41;70.93
60240;BME280;46102;39.012;-7.064;2022-09-02T03:35:10;98387.59;;;18.48;70.22
60240;BME280;46102;39.012;-7.064;2022-09-02T03:37:11;98390.09;;;18.57;69.82
60240;BME280;46102;39.012;-7.064;2022-09-02T03:39:13;98386.88;;;18.51;69.99
60240;BME280;46102;39.012;-7.064;2022-09-02T03:41:17;98385.16;;;18.43;70.30
60240;BME280;46102;39.012;-7.064;2022-09-02T03:43:19;98386.72;;;18.44;70.30
60240;BME280;46102;39.012;-7.064;2022-09-02T03:45:20;98381.34;;;18.55;69.45
60240;BME280;46102;39.012;-7.064;2022-09-02T03:47:22;98387.22;;;18.49;69.43
60240;BME280;46102;39.012;-7.064;2022-09-02T03:49:23;98380.63;;;18.58;68.79
60240;BME280;46102;39.012;-7.064;2022-09-02T03:51:25;98370.94;;;18.48;69.11
60240;BME280;46102;39.012;-7.064;2022-09-02T03:53:26;98377.44;;;18.59;68.79
60240;BME280;46102;39.012;-7.064;2022-09-02T03:55:31;98373.34;;;18.49;69.02
60240;BME280;46102;39.012;-7.064;2022-09-02T03:57:34;98368.13;;;18.44;69.34
60240;BME280;46102;39.012;-7.064;2022-09-02T03:59:35;98366.94;;;18.45;69.33
60240;BME280;46102;39.012;-7.064;2022-09-02T04:01:36;98372.97;;;18.51;69.45
60240;BME280;46102;39.012;-7.064;2022-09-02T04:03:38;98371.63;;;18.41;69.82
60240;BME280;46102;39.012;-7.064;2022-09-02T04:05:38;98376.47;;;18.48;69.75
60240;BME280;46102;39.012;-7.064;2022-09-02T04:07:39;98367.97;;;18.37;70.05
60240;BME280;46102;39.012;-7.064;2022-09-02T04:09:41;98374.81;;;18.43;69.98
60240;BME280;46102;39.012;-7.064;2022-09-02T04:11:41;98378.09;;;18.49;69.91
60240;BME280;46102;39.012;-7.064;2022-09-02T04:13:45;98378.19;;;18.56;69.79
60240;BME280;46102;39.012;-7.064;2022-09-02T04:15:49;98385.34;;;18.57;69.73
60240;BME280;46102;39.012;-7.064;2022-09-02T04:17:55;98371.47;;;18.57;69.66
60240;BME280;46102;39.012;-7.064;2022-09-02T04:19:56;98375.09;;;18.61;69.68
60240;BME280;46102;39.012;-7.064;2022-09-02T04:21:57;98374.63;;;18.56;69.59
60240;BME280;46102;39.012;-7.064;2022-09-02T04:23:58;98383.75;;;18.56;69.29
60240;BME280;46102;39.012;-7.064;2022-09-02T04:26:04;98372.66;;;18.56;69.23
60240;BME280;46102;39.012;-7.064;2022-09-02T04:28:05;98382.19;;;18.59;69.19
60240;BME280;46102;39.012;-7.064;2022-09-02T04:30:07;98385.25;;;18.50;69.37
60240;BME280;46102;39.012;-7.064;2022-09-02T04:32:10;98380.31;;;18.66;69.17
60240;BME280;46102;39.012;-7.064;2022-09-02T04:34:13;98376.38;;;18.67;69.00
60240;BME280;46102;39.012;-7.064;2022-09-02T04:36:16;98379.34;;;18.55;69.20
60240;BME280;46102;39.012;-7.064;2022-09-02T04:38:19;98377.50;;;18.63;68.39
60240;BME280;46102;39.012;-7.064;2022-09-02T04:40:21;98378.19;;;18.56;68.35
60240;BME280;46102;39.012;-7.064;2022-09-02T04:42:23;98367.41;;;18.51;68.48
60240;BME280;46102;39.012;-7.064;2022-09-02T04:44:26;98376.56;;;18.51;68.54
60240;BME280;46102;39.012;-7.064;2022-09-02T04:46:27;98379.25;;;18.48;68.95
60240;BME280;46102;39.012;-7.064;2022-09-02T04:48:29;98373.72;;;18.48;69.40
60240;BME280;46102;39.012;-7.064;2022-09-02T04:50:32;98380.44;;;18.47;69.33
60240;BME280;46102;39.012;-7.064;2022-09-02T04:52:35;98379.22;;;18.44;69.46
60240;BME280;46102;39.012;-7.064;2022-09-02T04:54:36;98374.38;;;18.38;69.57
60240;BME280;46102;39.012;-7.064;2022-09-02T04:56:39;98365.22;;;18.37;69.46
60240;BME280;46102;39.012;-7.064;2022-09-02T04:58:42;98359.97;;;18.32;69.50
60240;BME280;46102;39.012;-7.064;2022-09-02T05:00:47;98371.09;;;18.32;69.31
60240;BME280;46102;39.012;-7.064;2022-09-02T05:02:49;98361.97;;;18.31;69.28
60240;BME280;46102;39.012;-7.064;2022-09-02T05:04:50;98364.31;;;18.29;69.32
60240;BME280;46102;39.012;-7.064;2022-09-02T05:06:59;98361.59;;;18.33;69.04
60240;BME280;46102;39.012;-7.064;2022-09-02T05:09:04;98359.13;;;18.28;69.06
60240;BME280;46102;39.012;-7.064;2022-09-02T05:11:15;98362.16;;;18.19;69.51
60240;BME280;46102;39.012;-7.064;2022-09-02T05:13:21;98347.97;;;18.24;69.51
60240;BME280;46102;39.012;-7.064;2022-09-02T05:15:23;98361.34;;;18.19;69.82
60240;BME280;46102;39.012;-7.064;2022-09-02T05:17:26;98356.66;;;18.23;69.78
60240;BME280;46102;39.012;-7.064;2022-09-02T05:19:28;98352.50;;;18.36;69.57
60240;BME280;46102;39.012;-7.064;2022-09-02T05:21:29;98360.75;;;18.29;69.63
60240;BME280;46102;39.012;-7.064;2022-09-02T05:23:31;98354.53;;;18.39;69.09
60240;BME280;46102;39.012;-7.064;2022-09-02T05:25:32;98358.06;;;18.36;69.16
60240;BME280;46102;39.012;-7.064;2022-09-02T05:27:34;98351.63;;;18.28;69.36
60240;BME280;46102;39.012;-7.064;2022-09-02T05:29:35;98357.75;;;18.41;68.97
60240;BME280;46102;39.012;-7.064;2022-09-02T05:31:36;98361.69;;;18.40;68.76
60240;BME280;46102;39.012;-7.064;2022-09-02T05:33:39;98356.03;;;18.33;68.73
60240;BME280;46102;39.012;-7.064;2022-09-02T05:35:41;98364.47;;;18.40;68.28
60240;BME280;46102;39.012;-7.064;2022-09-02T05:37:43;98365.22;;;18.37;68.48
60240;BME280;46102;39.012;-7.064;2022-09-02T05:39:44;98371.25;;;18.43;67.89
60240;BME280;46102;39.012;-7.064;2022-09-02T05:41:45;98371.94;;;18.36;68.05
60240;BME280;46102;39.012;-7.064;2022-09-02T05:43:46;98373.06;;;18.31;67.96
60240;BME280;46102;39.012;-7.064;2022-09-02T05:45:51;98367.16;;;18.33;67.48
60240;BME280;46102;39.012;-7.064;2022-09-02T05:47:53;98370.66;;;18.30;67.46
60240;BME280;46102;39.012;-7.064;2022-09-02T05:49:57;98370.63;;;18.26;67.32
60240;BME280;46102;39.012;-7.064;2022-09-02T05:52:01;98376.91;;;18.23;67.39
60240;BME280;46102;39.012;-7.064;2022-09-02T05:54:18;98377.00;;;18.30;67.38
60240;BME280;46102;39.012;-7.064;2022-09-02T05:56:21;98377.81;;;18.31;67.24
60240;BME280;46102;39.012;-7.064;2022-09-02T05:58:22;98381.72;;;18.26;67.39
60240;BME280;46102;39.012;-7.064;2022-09-02T06:00:24;98380.34;;;18.17;67.87
60240;BME280;46102;39.012;-7.064;2022-09-02T06:02:32;98382.53;;;18.27;67.58
60240;BME280;46102;39.012;-7.064;2022-09-02T06:04:41;98380.69;;;18.12;67.94
60240;BME280;46102;39.012;-7.064;2022-09-02T06:06:44;98389.09;;;18.15;67.96
60240;BME280;46102;39.012;-7.064;2022-09-02T06:08:49;98387.09;;;18.16;68.05
60240;BME280;46102;39.012;-7.064;2022-09-02T06:10:50;98388.75;;;18.20;68.00
60240;BME280;46102;39.012;-7.064;2022-09-02T06:12:54;98379.63;;;18.20;68.06
60240;BME280;46102;39.012;-7.064;2022-09-02T06:14:59;98384.88;;;18.25;67.81
60240;BME280;46102;39.012;-7.064;2022-09-02T06:17:01;98384.44;;;18.23;67.78
60240;BME280;46102;39.012;-7.064;2022-09-02T06:19:10;98389.19;;;18.22;67.90
60240;BME280;46102;39.012;-7.064;2022-09-02T06:21:11;98390.41;;;18.25;67.62
60240;BME280;46102;39.012;-7.064;2022-09-02T06:23:16;98388.09;;;18.30;67.46
60240;BME280;46102;39.012;-7.064;2022-09-02T06:25:18;98391.22;;;18.25;67.55
60240;BME280;46102;39.012;-7.064;2022-09-02T06:27:21;98393.56;;;18.23;67.79
60240;BME280;46102;39.012;-7.064;2022-09-02T06:29:26;98393.81;;;18.15;68.10
60240;BME280;46102;39.012;-7.064;2022-09-02T06:31:29;98391.47;;;18.17;67.99
60240;BME280;46102;39.012;-7.064;2022-09-02T06:33:29;98392.22;;;18.14;68.02
60240;BME280;46102;39.012;-7.064;2022-09-02T06:35:36;98386.22;;;18.12;68.37
60240;BME280;46102;39.012;-7.064;2022-09-02T06:37:37;98390.31;;;18.18;68.15
60240;BME280;46102;39.012;-7.064;2022-09-02T06:39:38;98388.22;;;18.11;68.42
60240;BME280;46102;39.012;-7.064;2022-09-02T06:41:45;98391.34;;;18.09;68.55
60240;BME280;46102;39.012;-7.064;2022-09-02T06:43:49;98396.66;;;18.18;68.22
60240;BME280;46102;39.012;-7.064;2022-09-02T06:45:54;98396.88;;;18.33;67.47
60240;BME280;46102;39.012;-7.064;2022-09-02T06:47:55;98400.41;;;18.29;67.61
60240;BME280;46102;39.012;-7.064;2022-09-02T06:49:57;98397.38;;;18.38;67.51
60240;BME280;46102;39.012;-7.064;2022-09-02T06:51:58;98390.00;;;18.49;67.20
60240;BME280;46102;39.012;-7.064;2022-09-02T06:54:06;98384.91;;;18.55;66.85
60240;BME280;46102;39.012;-7.064;2022-09-02T06:56:09;98392.47;;;18.55;66.89
60240;BME280;46102;39.012;-7.064;2022-09-02T06:58:11;98390.09;;;18.57;66.92
60240;BME280;46102;39.012;-7.064;2022-09-02T07:00:13;98383.94;;;18.70;66.61
60240;BME280;46102;39.012;-7.064;2022-09-02T07:02:16;98380.16;;;18.82;66.17
60240;BME280;46102;39.012;-7.064;2022-09-02T07:04:17;98375.66;;;19.01;65.64
60240;BME280;46102;39.012;-7.064;2022-09-02T07:06:41;98373.94;;;19.23;64.80
60240;BME280;46102;39.012;-7.064;2022-09-02T07:08:42;98380.84;;;19.36;64.27
60240;BME280;46102;39.012;-7.064;2022-09-02T07:10:44;98378.19;;;19.47;63.68
60240;BME280;46102;39.012;-7.064;2022-09-02T07:12:44;98377.94;;;19.59;63.26
60240;BME280;46102;39.012;-7.064;2022-09-02T07:14:49;98377.25;;;19.69;62.83
60240;BME280;46102;39.012;-7.064;2022-09-02T07:16:57;98380.25;;;19.91;62.13
60240;BME280;46102;39.012;-7.064;2022-09-02T07:19:04;98370.84;;;20.06;61.19
60240;BME280;46102;39.012;-7.064;2022-09-02T07:21:10;98361.72;;;20.09;61.30
60240;BME280;46102;39.012;-7.064;2022-09-02T07:23:14;98368.13;;;20.17;61.04
60240;BME280;46102;39.012;-7.064;2022-09-02T07:25:17;98368.97;;;20.21;60.91
60240;BME280;46102;39.012;-7.064;2022-09-02T07:27:18;98375.03;;;20.34;61.03
60240;BME280;46102;39.012;-7.064;2022-09-02T07:29:21;98384.72;;;20.54;59.95
60240;BME280;46102;39.012;-7.064;2022-09-02T07:31:23;98387.63;;;20.65;59.69
60240;BME280;46102;39.012;-7.064;2022-09-02T07:33:24;98386.84;;;20.68;59.85
60240;BME280;46102;39.012;-7.064;2022-09-02T07:35:25;98379.72;;;20.78;59.21
60240;BME280;46102;39.012;-7.064;2022-09-02T07:37:26;98369.50;;;20.96;58.53
60240;BME280;46102;39.012;-7.064;2022-09-02T07:39:28;98364.69;;;20.97;58.38
60240;BME280;46102;39.012;-7.064;2022-09-02T07:41:29;98370.34;;;21.18;57.69
60240;BME280;46102;39.012;-7.064;2022-09-02T07:43:31;98384.34;;;21.26;57.64
60240;BME280;46102;39.012;-7.064;2022-09-02T07:45:33;98379.19;;;21.38;57.65
60240;BME280;46102;39.012;-7.064;2022-09-02T07:47:36;98374.88;;;21.45;57.22
60240;BME280;46102;39.012;-7.064;2022-09-02T07:49:37;98371.28;;;21.48;57.20
60240;BME280;46102;39.012;-7.064;2022-09-02T07:51:42;98378.44;;;21.45;57.37
60240;BME280;46102;39.012;-7.064;2022-09-02T07:53:43;98378.47;;;21.52;57.08
60240;BME280;46102;39.012;-7.064;2022-09-02T07:55:45;98386.47;;;21.61;56.41
60240;BME280;46102;39.012;-7.064;2022-09-02T07:57:48;98385.28;;;21.55;56.58
60240;BME280;46102;39.012;-7.064;2022-09-02T07:59:49;98388.47;;;21.60;56.41
60240;BME280;46102;39.012;-7.064;2022-09-02T08:01:51;98385.28;;;21.55;56.05
60240;BME280;46102;39.012;-7.064;2022-09-02T08:03:52;98391.66;;;21.55;56.15
60240;BME280;46102;39.012;-7.064;2022-09-02T08:05:56;98402.03;;;21.69;55.82
60240;BME280;46102;39.012;-7.064;2022-09-02T08:07:57;98405.22;;;21.75;55.50
60240;BME280;46102;39.012;-7.064;2022-09-02T08:09:59;98411.63;;;21.79;55.72
60240;BME280;46102;39.012;-7.064;2022-09-02T08:12:02;98420.00;;;21.86;55.67
60240;BME280;46102;39.012;-7.064;2022-09-02T08:14:03;98414.47;;;21.93;54.99
60240;BME280;46102;39.012;-7.064;2022-09-02T08:16:04;98426.03;;;22.06;54.59
60240;BME280;46102;39.012;-7.064;2022-09-02T08:18:06;98425.25;;;22.20;54.57
60240;BME280;46102;39.012;-7.064;2022-09-02T08:20:08;98428.88;;;22.42;53.32
60240;BME280;46102;39.012;-7.064;2022-09-02T08:22:09;98431.69;;;22.56;53.43
60240;BME280;46102;39.012;-7.064;2022-09-02T08:24:10;98435.63;;;22.73;52.55
60240;BME280;46102;39.012;-7.064;2022-09-02T08:26:11;98436.00;;;22.93;51.99
60240;BME280;46102;39.012;-7.064;2022-09-02T08:28:12;98434.75;;;23.23;51.36
60240;BME280;46102;39.012;-7.064;2022-09-02T08:30:14;98434.31;;;23.35;50.69
60240;BME280;46102;39.012;-7.064;2022-09-02T08:32:15;98443.03;;;23.48;50.09
60240;BME280;46102;39.012;-7.064;2022-09-02T08:34:15;98438.34;;;23.31;50.62
60240;BME280;46102;39.012;-7.064;2022-09-02T08:36:16;98447.47;;;23.45;50.45
60240;BME280;46102;39.012;-7.064;2022-09-02T08:38:17;98451.84;;;23.54;50.31
60240;BME280;46102;39.012;-7.064;2022-09-02T08:40:21;98455.34;;;23.68;50.08
60240;BME280;46102;39.012;-7.064;2022-09-02T08:42:29;98447.69;;;23.87;49.33
60240;BME280;46102;39.012;-7.064;2022-09-02T08:44:33;98442.41;;;24.00;49.03
60240;BME280;46102;39.012;-7.064;2022-09-02T08:46:36;98457.09;;;24.18;48.65
60240;BME280;46102;39.012;-7.064;2022-09-02T08:50:45;98450.94;;;24.38;47.87
60240;BME280;46102;39.012;-7.064;2022-09-02T08:54:55;98448.19;;;24.30;47.85
60240;BME280;46102;39.012;-7.064;2022-09-02T08:56:57;98450.00;;;24.03;48.31
60240;BME280;46102;39.012;-7.064;2022-09-02T08:58:58;98445.13;;;24.10;48.57
60240;BME280;46102;39.012;-7.064;2022-09-02T09:10:19;98440.31;;;25.08;46.05
60240;BME280;46102;39.012;-7.064;2022-09-02T09:21:30;98445.44;;;25.82;43.60
60240;BME280;46102;39.012;-7.064;2022-09-02T09:23:36;98442.78;;;26.02;43.45
60240;BME280;46102;39.012;-7.064;2022-09-02T09:25:38;98446.19;;;26.17;43.34
60240;BME280;46102;39.012;-7.064;2022-09-02T09:27:40;98440.97;;;26.15;43.32
60240;BME280;46102;39.012;-7.064;2022-09-02T09:29:41;98442.22;;;26.14;42.94
60240;BME280;46102;39.012;-7.064;2022-09-02T09:31:49;98431.06;;;26.07;43.00
60240;BME280;46102;39.012;-7.064;2022-09-02T09:34:11;98448.25;;;26.13;42.71
60240;BME280;46102;39.012;-7.064;2022-09-02T09:36:13;98445.66;;;26.26;42.06
60240;BME280;46102;39.012;-7.064;2022-09-02T09:38:15;98442.59;;;26.40;41.95
60240;BME280;46102;39.012;-7.064;2022-09-02T09:42:35;98441.72;;;26.70;40.84
60240;BME280;46102;39.012;-7.064;2022-09-02T09:44:40;98449.44;;;26.66;41.08
60240;BME280;46102;39.012;-7.064;2022-09-02T09:46:44;98444.47;;;26.74;40.83
60240;BME280;46102;39.012;-7.064;2022-09-02T09:48:48;98447.41;;;26.67;40.92
60240;BME280;46102;39.012;-7.064;2022-09-02T09:53:13;98451.94;;;26.33;41.20
60240;BME280;46102;39.012;-7.064;2022-09-02T09:55:15;98447.75;;;26.18;41.38
60240;BME280;46102;39.012;-7.064;2022-09-02T09:57:20;98451.69;;;26.24;41.54
60240;BME280;46102;39.012;-7.064;2022-09-02T09:59:39;98454.84;;;26.53;40.72
60240;BME280;46102;39.012;-7.064;2022-09-02T10:01:49;98437.19;;;26.76;39.75
60240;BME280;46102;39.012;-7.064;2022-09-02T10:03:59;98449.03;;;26.88;39.63
60240;BME280;46102;39.012;-7.064;2022-09-02T10:06:18;98446.69;;;27.06;38.68
60240;BME280;46102;39.012;-7.064;2022-09-02T10:08:22;98451.91;;;27.08;38.63
60240;BME280;46102;39.012;-7.064;2022-09-02T10:10:24;98450.88;;;26.98;39.01
60240;BME280;46102;39.012;-7.064;2022-09-02T10:12:31;98444.16;;;27.35;38.37
60240;BME280;46102;39.012;-7.064;2022-09-02T10:14:42;98442.97;;;27.73;37.45
60240;BME280;46102;39.012;-7.064;2022-09-02T10:17:08;98438.56;;;27.72;37.16
60240;BME280;46102;39.012;-7.064;2022-09-02T10:19:32;98449.41;;;27.73;37.52
60240;BME280;46102;39.012;-7.064;2022-09-02T10:21:57;98441.53;;;27.85;36.84
60240;BME280;46102;39.012;-7.064;2022-09-02T10:26:40;98439.03;;;28.07;36.51
60240;BME280;46102;39.012;-7.064;2022-09-02T10:29:06;98448.66;;;28.42;36.17
60240;BME280;46102;39.012;-7.064;2022-09-02T10:31:24;98433.59;;;28.65;35.20
60240;BME280;46102;39.012;-7.064;2022-09-02T10:35:58;98430.34;;;28.50;35.18
60240;BME280;46102;39.012;-7.064;2022-09-02T10:40:18;98434.81;;;28.15;35.72
60240;BME280;46102;39.012;-7.064;2022-09-02T10:47:09;98419.31;;;28.39;35.76
60240;BME280;46102;39.012;-7.064;2022-09-02T10:51:45;98411.19;;;28.41;35.10
60240;BME280;46102;39.012;-7.064;2022-09-02T10:56:02;98407.59;;;28.57;35.02
60240;BME280;46102;39.012;-7.064;2022-09-02T10:58:16;98410.44;;;29.03;34.77
60240;BME280;46102;39.012;-7.064;2022-09-02T11:00:19;98401.47;;;29.50;33.77
60240;BME280;46102;39.012;-7.064;2022-09-02T11:02:27;98402.59;;;29.65;33.38
60240;BME280;46102;39.012;-7.064;2022-09-02T11:04:37;98400.97;;;29.39;33.88
60240;BME280;46102;39.012;-7.064;2022-09-02T11:06:40;98400.50;;;29.27;33.29
60240;BME280;46102;39.012;-7.064;2022-09-02T11:08:48;98392.25;;;29.04;33.26
60240;BME280;46102;39.012;-7.064;2022-09-02T11:10:55;98387.59;;;28.97;33.36
60240;BME280;46102;39.012;-7.064;2022-09-02T11:13:04;98389.50;;;29.17;32.91
60240;BME280;46102;39.012;-7.064;2022-09-02T11:15:19;98386.72;;;29.42;32.46
60240;BME280;46102;39.012;-7.064;2022-09-02T11:17:34;98393.31;;;29.65;32.73
60240;BME280;46102;39.012;-7.064;2022-09-02T11:19:42;98382.84;;;29.78;32.34
60240;BME280;46102;39.012;-7.064;2022-09-02T11:22:18;98377.31;;;30.00;32.63
60240;BME280;46102;39.012;-7.064;2022-09-02T11:26:39;98380.66;;;30.46;32.04
60240;BME280;46102;39.012;-7.064;2022-09-02T11:28:47;98383.84;;;30.48;31.44
60240;BME280;46102;39.012;-7.064;2022-09-02T11:30:57;98372.28;;;30.56;31.24
60240;BME280;46102;39.012;-7.064;2022-09-02T11:33:16;98381.03;;;30.83;30.32